createdAt,value
2019-06-10T00:01:51.445Z,80.10
2019-06-10T00:04:22.360Z,84.00
2019-06-10T00:06:52.979Z,80.80
2019-06-10T00:09:22.566Z,82.80
2019-06-10T00:11:52.044Z,83.00
2019-06-10T00:14:21.733Z,84.90
2019-06-10T00:16:51.540Z,86.60
2019-06-10T00:19:21.883Z,85.30
2019-06-10T00:21:51.782Z,84.90
2019-06-10T00:24:21.433Z,79.20
2019-06-10T00:26:51.318Z,79.90
2019-06-10T00:29:22.296Z,74.50
2019-06-10T00:31:52.086Z,78.50
2019-06-10T00:34:22.289Z,82.40
2019-06-10T00:36:51.862Z,75.60
2019-06-10T00:39:22.228Z,79.80
2019-06-10T00:41:52.366Z,79.30
2019-06-10T00:44:22.687Z,79.20
2019-06-10T00:46:52.159Z,73.60
2019-06-10T00:49:21.823Z,73.00
2019-06-10T00:51:52.225Z,76.90
2019-06-10T00:54:37.396Z,76.20
2019-06-10T00:57:07.404Z,76.50
2019-06-10T00:59:36.858Z,82.20
2019-06-10T01:02:06.562Z,75.60
2019-06-10T01:04:36.519Z,73.50
2019-06-10T01:07:14.748Z,82.20
2019-06-10T01:09:43.816Z,80.40
2019-06-10T01:12:14.889Z,81.70
2019-06-10T01:14:44.538Z,85.30
2019-06-10T01:17:21.479Z,84.90
2019-06-10T01:19:52.413Z,79.70
2019-06-10T01:22:23.152Z,76.40
2019-06-10T01:24:53.107Z,74.60
2019-06-10T01:27:22.502Z,73.00
2019-06-10T01:29:53.698Z,81.30
2019-06-10T01:32:23.340Z,80.50
2019-06-10T01:34:53.858Z,84.60
2019-06-10T01:37:23.349Z,81.20
2019-06-10T01:39:56.191Z,84.80
2019-06-10T01:42:25.740Z,81.50
2019-06-10T01:44:55.297Z,84.90
2019-06-10T01:47:25.994Z,84.70
2019-06-10T01:50:03.843Z,82.10
2019-06-10T01:52:33.252Z,82.20
2019-06-10T01:55:03.257Z,85.30
2019-06-10T01:57:32.709Z,79.60
2019-06-10T02:00:09.156Z,83.60
2019-06-10T02:02:36.060Z,86.90
2019-06-10T02:05:06.480Z,83.70
2019-06-10T02:07:35.931Z,85.20
2019-06-10T02:10:16.813Z,85.60
2019-06-10T02:12:45.726Z,81.00
2019-06-10T02:15:17.125Z,83.60
2019-06-10T02:17:54.216Z,83.30
2019-06-10T02:20:24.042Z,88.00
2019-06-10T02:22:54.093Z,86.50
2019-06-10T02:25:23.664Z,89.50
2019-06-10T02:27:53.100Z,88.70
2019-06-10T02:30:36.167Z,84.30
2019-06-10T02:32:53.844Z,84.50
2019-06-10T02:35:37.454Z,89.40
2019-06-10T02:37:55.300Z,89.80
2019-06-10T02:40:31.634Z,86.90
2019-06-10T02:42:57.892Z,89.30
2019-06-10T02:45:44.638Z,88.10
2019-06-10T02:48:17.656Z,87.70
2019-06-10T02:50:57.504Z,83.50
2019-06-10T02:53:30.705Z,81.20
2019-06-10T02:55:58.447Z,84.20
2019-06-10T02:58:37.331Z,83.00
2019-06-10T03:01:03.852Z,82.50
2019-06-10T03:03:39.325Z,86.00
2019-06-10T03:06:07.383Z,86.80
2019-06-10T03:09:04.162Z,78.50
2019-06-10T03:11:37.136Z,78.00
2019-06-10T03:14:05.374Z,84.30
2019-06-10T03:16:49.197Z,80.00
2019-06-10T03:19:37.179Z,79.40
2019-06-10T03:21:52.292Z,85.50
2019-06-10T03:24:23.904Z,84.10
2019-06-10T03:26:53.101Z,85.90
2019-06-10T03:29:25.347Z,82.80
2019-06-10T03:31:55.570Z,83.90
2019-06-10T03:34:33.648Z,82.80
2019-06-10T03:36:57.943Z,83.20
2019-06-10T03:39:32.296Z,80.60
2019-06-10T03:42:02.324Z,81.50
2019-06-10T03:44:37.842Z,80.00
2019-06-10T03:47:07.596Z,80.80
2019-06-10T03:49:49.056Z,83.30
2019-06-10T03:52:17.464Z,85.10
2019-06-10T03:54:47.017Z,83.30
2019-06-10T03:57:19.206Z,83.90
2019-06-10T03:59:48.982Z,84.00
2019-06-10T04:02:19.388Z,79.80
2019-06-10T04:04:49.058Z,83.60
2019-06-10T04:07:20.925Z,78.70
2019-06-10T04:09:52.652Z,80.10
2019-06-10T04:12:27.351Z,81.30
2019-06-10T04:14:56.763Z,81.80
2019-06-10T04:17:27.380Z,81.90
2019-06-10T04:20:09.487Z,77.40
2019-06-10T04:22:28.842Z,80.50
2019-06-10T04:25:03.049Z,78.50
2019-06-10T04:27:33.508Z,78.50
2019-06-10T04:30:03.417Z,79.10
2019-06-10T04:32:32.972Z,81.60
2019-06-10T04:35:02.514Z,79.80
2019-06-10T04:37:32.832Z,82.50
2019-06-10T04:40:03.025Z,78.80
2019-06-10T04:42:33.271Z,84.90
2019-06-10T04:45:03.314Z,82.90
2019-06-10T04:47:33.440Z,85.40
2019-06-10T04:50:24.138Z,81.00
2019-06-10T04:52:42.918Z,83.60
2019-06-10T04:55:12.745Z,84.50
2019-06-10T04:58:02.504Z,81.70
2019-06-10T05:00:33.249Z,84.40
2019-06-10T05:03:03.278Z,84.90
2019-06-10T05:05:32.981Z,84.00
2019-06-10T05:08:03.302Z,81.40
2019-06-10T05:10:56.008Z,84.10
2019-06-10T05:13:27.066Z,83.70
2019-06-10T05:15:57.288Z,81.10
2019-06-10T05:18:33.002Z,84.20
2019-06-10T05:21:02.855Z,81.20
2019-06-10T05:23:33.084Z,83.10
2019-06-10T05:26:03.113Z,81.70
2019-06-10T05:28:34.269Z,82.80
2019-06-10T05:31:22.538Z,82.20
2019-06-10T05:33:53.094Z,85.70
2019-06-10T05:36:38.001Z,86.50
2019-06-10T05:39:08.419Z,83.70
2019-06-10T05:41:38.459Z,83.50
2019-06-10T05:44:28.441Z,86.60
2019-06-10T05:46:58.608Z,83.40
2019-06-10T05:49:29.217Z,87.90
2019-06-10T05:51:58.991Z,85.80
2019-06-10T05:54:29.102Z,83.70
2019-06-10T05:57:09.098Z,84.00
2019-06-10T05:59:38.672Z,86.60
2019-06-10T06:02:08.712Z,86.70
2019-06-10T06:04:38.348Z,88.20
2019-06-10T06:07:07.927Z,85.90
2019-06-10T06:09:37.798Z,88.80
2019-06-10T06:12:07.268Z,89.70
2019-06-10T06:14:45.196Z,88.60
2019-06-10T06:17:16.813Z,84.00
2019-06-10T06:19:47.035Z,86.40
2019-06-10T06:22:22.185Z,87.90
2019-06-10T06:24:52.281Z,87.20
2019-06-10T06:27:22.492Z,87.70
2019-06-10T06:29:53.393Z,86.20
2019-06-10T06:32:23.697Z,86.90
2019-06-10T06:35:06.160Z,84.70
2019-06-10T06:37:37.693Z,85.20
2019-06-10T06:40:07.518Z,84.20
2019-06-10T06:42:38.237Z,85.50
2019-06-10T06:45:08.576Z,84.50
2019-06-10T06:47:39.122Z,85.80
2019-06-10T06:50:09.147Z,85.20
2019-06-10T06:53:10.121Z,86.00
2019-06-10T06:55:12.778Z,83.70
2019-06-10T06:57:43.370Z,83.90
2019-06-10T07:00:43.044Z,83.30
2019-06-10T07:03:14.450Z,84.20
2019-06-10T07:05:45.912Z,85.60
2019-06-10T07:08:18.395Z,86.00
2019-06-10T07:10:48.137Z,85.10
2019-06-10T07:13:17.997Z,84.90
2019-06-10T07:16:03.019Z,83.60
2019-06-10T07:18:43.518Z,83.10
2019-06-10T07:21:13.401Z,83.90
2019-06-10T07:23:46.902Z,85.40
2019-06-10T07:26:17.321Z,83.50
2019-06-10T07:28:47.657Z,85.60
2019-06-10T07:39:35.288Z,83.40
2019-06-10T07:42:13.486Z,83.60
2019-06-10T07:44:44.027Z,83.60
2019-06-10T07:47:19.322Z,82.20
2019-06-10T07:49:49.167Z,82.10
2019-06-10T07:52:20.001Z,81.80
2019-06-10T07:54:49.659Z,81.50
2019-06-10T07:57:22.591Z,84.10
2019-06-10T07:59:53.809Z,84.70
2019-06-10T08:02:23.821Z,83.70
2019-06-10T08:04:54.311Z,83.20
2019-06-10T08:07:24.236Z,83.20
2019-06-10T08:09:54.947Z,84.10
2019-06-10T08:12:24.498Z,86.10
2019-06-10T08:14:55.594Z,86.60
2019-06-10T08:17:25.044Z,84.60
2019-06-10T08:19:54.568Z,84.20
2019-06-10T08:22:33.939Z,82.60
2019-06-10T08:24:57.045Z,83.10
2019-06-10T08:27:27.702Z,83.20
2019-06-10T08:30:14.263Z,83.80
2019-06-10T08:32:28.863Z,82.90
2019-06-10T08:34:58.558Z,83.30
2019-06-10T08:37:28.940Z,81.10
2019-06-10T08:39:59.228Z,85.00
2019-06-10T08:42:28.839Z,81.10
2019-06-10T08:45:00.018Z,81.10
2019-06-10T08:47:32.602Z,80.90
2019-06-10T08:50:09.864Z,80.10
2019-06-10T08:52:53.916Z,80.50
2019-06-10T08:55:12.615Z,82.20
2019-06-10T08:57:44.124Z,80.50
2019-06-10T09:00:16.304Z,78.80
2019-06-10T09:02:48.641Z,79.00
2019-06-10T09:05:19.379Z,78.80
2019-06-10T09:08:13.027Z,79.30
2019-06-10T09:10:49.094Z,78.40
2019-06-10T09:13:22.355Z,76.10
2019-06-10T09:16:09.663Z,76.80
2019-06-10T09:18:23.407Z,79.00
2019-06-10T09:21:02.354Z,78.20
2019-06-10T09:23:59.249Z,75.30
2019-06-10T09:26:25.779Z,73.10
2019-06-10T09:28:57.085Z,74.60
2019-06-10T09:31:33.831Z,78.80
2019-06-10T09:34:08.213Z,74.30
2019-06-10T09:36:40.910Z,69.60
2019-06-10T09:39:12.469Z,69.70
2019-06-10T09:41:52.319Z,70.60
2019-06-10T09:44:17.034Z,69.70
2019-06-10T09:46:53.705Z,68.60
2019-06-10T09:49:23.006Z,72.00
2019-06-10T09:51:57.339Z,71.10
2019-06-10T09:54:26.413Z,72.00
2019-06-10T09:56:56.135Z,74.60
2019-06-10T09:59:25.775Z,73.70
2019-06-10T10:02:07.089Z,71.90
2019-06-10T10:04:38.144Z,66.60
2019-06-10T10:07:09.364Z,68.40
2019-06-10T10:09:39.059Z,65.50
2019-06-10T10:12:08.759Z,69.10
2019-06-10T10:14:38.292Z,67.70
2019-06-10T10:17:08.656Z,68.10
2019-06-10T10:19:38.050Z,65.40
2019-06-10T10:22:10.905Z,65.30
2019-06-10T10:24:39.407Z,66.20
2019-06-10T10:27:09.684Z,63.50
2019-06-10T10:32:02.995Z,68.00
2019-06-10T10:34:33.373Z,67.80
2019-06-10T10:37:03.425Z,63.70
2019-06-10T10:39:33.345Z,61.20
2019-06-10T10:42:03.973Z,63.40
2019-06-10T10:44:34.556Z,60.90
2019-06-10T10:47:04.661Z,66.70
2019-06-10T10:49:34.503Z,62.40
2019-06-10T10:52:04.080Z,63.10
2019-06-10T10:54:36.726Z,62.80
2019-06-10T10:57:06.269Z,61.70
2019-06-10T10:59:52.903Z,61.50
2019-06-10T11:02:22.754Z,60.70
2019-06-10T11:04:55.356Z,61.50
2019-06-10T11:07:23.668Z,59.80
2019-06-10T11:10:33.683Z,65.40
2019-06-10T11:13:08.665Z,62.80
2019-06-10T11:15:38.174Z,63.90
2019-06-10T11:18:08.810Z,61.40
2019-06-10T11:20:38.508Z,62.80
2019-06-10T11:23:17.526Z,61.50
2019-06-10T11:25:59.641Z,63.60
2019-06-10T11:28:29.286Z,62.00
2019-06-10T11:30:59.157Z,65.90
2019-06-10T11:33:33.058Z,62.60
2019-06-10T11:36:04.059Z,63.20
2019-06-10T11:38:33.775Z,63.70
2019-06-10T11:41:03.809Z,65.20
2019-06-10T11:43:33.477Z,60.80
2019-06-10T11:46:07.811Z,63.40
2019-06-10T11:48:35.877Z,62.10
2019-06-10T11:51:05.624Z,61.30
2019-06-10T11:53:58.914Z,64.60
2019-06-10T11:56:28.711Z,58.60
2019-06-10T11:58:59.234Z,59.10
2019-06-10T12:01:30.901Z,60.60
2019-06-10T12:04:03.866Z,57.60
2019-06-10T12:06:33.994Z,58.30
2019-06-10T12:09:06.963Z,62.10
2019-06-10T12:11:43.832Z,64.40
2019-06-10T12:14:13.962Z,60.10
2019-06-10T12:17:20.695Z,58.00
2019-06-10T12:19:16.507Z,58.70
2019-06-10T12:21:47.666Z,57.00
2019-06-10T12:24:22.917Z,56.30
2019-06-10T12:26:55.472Z,59.00
2019-06-10T12:29:23.296Z,59.80
2019-06-10T12:31:57.666Z,62.20
2019-06-10T12:34:26.968Z,59.00
2019-06-10T12:37:02.150Z,59.00
2019-06-10T12:39:30.262Z,57.10
2019-06-10T12:42:04.011Z,56.60
2019-06-10T12:44:33.717Z,56.30
2019-06-10T12:47:07.441Z,55.70
2019-06-10T12:49:34.021Z,56.20
2019-06-10T12:52:07.752Z,58.30
2019-06-10T12:54:37.430Z,60.80
2019-06-10T12:57:07.307Z,62.20
2019-06-10T12:59:39.380Z,60.80
2019-06-10T13:02:19.123Z,57.40
2019-06-10T13:04:42.882Z,57.20
2019-06-10T13:07:23.129Z,60.90
2019-06-10T13:09:57.816Z,56.60
2019-06-10T13:15:58.149Z,62.50
2019-06-10T13:18:27.825Z,62.80
2019-06-10T13:21:02.019Z,61.80
2019-06-10T13:23:34.455Z,61.00
2019-06-10T13:26:04.343Z,63.10
2019-06-10T13:28:32.571Z,64.60
2019-06-10T13:31:06.248Z,60.30
2019-06-10T13:33:43.325Z,62.20
2019-06-10T13:36:48.077Z,60.40
2019-06-10T13:39:22.412Z,59.10
2019-06-10T13:41:53.223Z,60.10
2019-06-10T13:44:22.950Z,59.20
2019-06-10T13:46:55.913Z,60.90
2019-06-10T13:49:26.583Z,60.00
2019-06-10T13:51:56.138Z,62.30
2019-06-10T13:54:26.385Z,58.10
2019-06-10T13:56:55.942Z,59.60
2019-06-10T13:59:25.770Z,58.30
2019-06-10T14:01:55.264Z,60.30
2019-06-10T14:04:33.320Z,60.60
2019-06-10T14:07:07.408Z,62.80
2019-06-10T14:09:34.008Z,58.40
2019-06-10T14:12:04.063Z,59.80
2019-06-10T14:14:33.711Z,61.50
2019-06-10T14:17:19.118Z,60.10
2019-06-10T14:19:44.344Z,62.80
2019-06-10T14:22:15.974Z,58.10
2019-06-10T14:24:45.520Z,57.00
2019-06-10T14:27:18.138Z,63.30
2019-06-10T14:29:47.546Z,62.70
2019-06-10T14:32:18.901Z,61.50
2019-06-10T14:34:58.172Z,63.70
2019-06-10T14:37:35.692Z,59.70
2019-06-10T14:39:59.153Z,58.30
2019-06-10T14:42:28.675Z,62.30
2019-06-10T14:44:58.387Z,62.80
2019-06-10T14:47:28.161Z,61.90
2019-06-10T14:50:18.082Z,66.70
2019-06-10T14:52:47.727Z,63.60
2019-06-10T14:55:18.550Z,61.80
2019-06-10T14:57:48.407Z,65.10
2019-06-10T15:00:19.707Z,62.20
2019-06-10T15:02:49.450Z,66.30
2019-06-10T15:05:19.629Z,63.10
2019-06-10T15:07:49.114Z,62.30
2019-06-10T15:10:19.905Z,63.60
2019-06-10T15:12:50.034Z,63.40
2019-06-10T15:15:21.034Z,64.50
2019-06-10T15:17:52.529Z,64.50
2019-06-10T15:20:22.798Z,63.70
2019-06-10T15:23:01.524Z,61.90
2019-06-10T15:25:48.354Z,63.60
2019-06-10T15:28:03.262Z,65.00
2019-06-10T15:30:34.359Z,63.70
2019-06-10T15:33:03.881Z,65.90
2019-06-10T15:35:33.514Z,67.00
2019-06-10T15:38:04.140Z,64.70
2019-06-10T15:40:34.444Z,66.60
2019-06-10T15:43:06.238Z,65.10
2019-06-10T15:45:35.393Z,66.10
2019-06-10T15:48:05.123Z,68.50
2019-06-10T15:50:34.977Z,67.10
2019-06-10T15:53:06.071Z,69.60
2019-06-10T15:56:05.830Z,65.50
2019-06-10T15:58:17.788Z,68.70
2019-06-10T16:00:47.883Z,72.00
2019-06-10T16:03:19.324Z,68.90
2019-06-10T16:05:52.771Z,65.70
2019-06-10T16:08:22.570Z,66.40
2019-06-10T16:10:53.683Z,65.40
2019-06-10T16:13:25.830Z,68.30
2019-06-10T16:15:58.443Z,68.40
2019-06-10T16:18:28.230Z,70.20
2019-06-10T16:20:57.876Z,71.80
2019-06-10T16:23:27.641Z,71.30
2019-06-10T16:25:59.579Z,71.30
2019-06-10T16:28:29.271Z,71.30
2019-06-10T16:31:05.524Z,70.30
2019-06-10T16:33:35.303Z,77.90
2019-06-10T16:36:05.446Z,76.20
2019-06-10T16:39:03.423Z,77.50
2019-06-10T16:41:33.170Z,79.70
2019-06-10T16:44:03.325Z,79.50
2019-06-10T16:46:32.884Z,75.00
2019-06-10T16:49:03.199Z,80.20
2019-06-10T16:51:33.194Z,83.30
2019-06-10T16:54:03.423Z,76.80
2019-06-10T16:56:33.738Z,76.40
2019-06-10T16:59:03.504Z,77.80
2019-06-10T17:01:33.246Z,81.80
2019-06-10T17:04:02.830Z,81.90
2019-06-10T17:06:32.824Z,81.60
2019-06-10T17:09:02.889Z,80.00
2019-06-10T17:11:33.613Z,80.60
2019-06-10T17:14:03.345Z,83.10
2019-06-10T17:16:33.978Z,82.90
2019-06-10T17:19:03.595Z,86.00
2019-06-10T17:21:34.761Z,80.80
2019-06-10T17:24:04.770Z,85.30
2019-06-10T17:26:42.429Z,85.70
2019-06-10T17:29:11.413Z,85.70
2019-06-10T17:31:43.330Z,81.20
2019-06-10T17:34:13.107Z,78.60
2019-06-10T17:36:42.809Z,75.80
2019-06-10T17:39:12.871Z,73.40
2019-06-10T17:41:42.917Z,73.10
2019-06-10T17:44:13.102Z,74.20
2019-06-10T17:46:42.773Z,77.00
2019-06-10T17:49:13.070Z,77.00
2019-06-10T17:51:43.338Z,77.00
2019-06-10T17:54:13.100Z,76.40
2019-06-10T17:56:44.250Z,78.00
2019-06-10T17:59:14.935Z,83.90
2019-06-10T18:01:53.713Z,99.90
2019-06-10T18:04:24.095Z,99.90
2019-06-10T18:06:55.954Z,99.90
2019-06-10T18:09:27.852Z,99.90
2019-06-10T18:12:03.824Z,99.90
2019-06-10T18:14:52.342Z,99.90
2019-06-10T18:17:25.958Z,99.90
2019-06-10T18:19:58.620Z,99.90
2019-06-10T18:22:28.470Z,99.90
2019-06-10T18:24:58.471Z,99.90
2019-06-10T18:27:28.976Z,99.90
2019-06-10T18:29:58.726Z,99.90
2019-06-10T18:32:37.340Z,99.90
2019-06-10T18:35:14.287Z,99.90
2019-06-10T18:37:44.272Z,99.90
2019-06-10T18:40:14.752Z,99.90
2019-06-10T18:42:45.864Z,99.90
2019-06-10T18:45:15.899Z,99.90
2019-06-10T18:47:46.082Z,99.90
2019-06-10T18:50:16.016Z,99.90
2019-06-10T18:52:46.548Z,99.90
2019-06-10T18:55:16.806Z,99.90
2019-06-10T18:57:47.192Z,99.90
2019-06-10T19:00:17.217Z,99.90
2019-06-10T19:03:08.678Z,99.90
2019-06-10T19:05:24.770Z,99.90
2019-06-10T19:07:54.967Z,99.90
2019-06-10T19:10:29.120Z,99.90
2019-06-10T19:13:02.495Z,99.90
2019-06-10T19:15:42.504Z,99.90
2019-06-10T19:18:15.384Z,99.90
2019-06-10T19:20:52.378Z,99.90
2019-06-10T19:23:22.673Z,99.90
2019-06-10T19:26:02.978Z,99.90
2019-06-10T19:28:35.504Z,99.90
2019-06-10T19:31:04.992Z,99.90
2019-06-10T19:33:35.791Z,99.90
2019-06-10T19:36:06.885Z,99.90
2019-06-10T19:38:37.072Z,99.90
2019-06-10T19:41:08.040Z,99.90
2019-06-10T19:43:41.615Z,99.90
2019-06-10T19:46:33.758Z,99.90
2019-06-10T19:49:06.832Z,99.90
2019-06-10T19:51:35.572Z,99.90
2019-06-10T19:54:05.513Z,99.90
2019-06-10T19:56:37.594Z,99.90
2019-06-10T19:59:07.572Z,99.90
2019-06-10T20:01:40.708Z,99.90
2019-06-10T20:04:33.452Z,99.90
2019-06-10T20:07:13.780Z,99.90
2019-06-10T20:09:45.090Z,99.90
2019-06-10T20:12:15.588Z,99.90
2019-06-10T20:14:46.713Z,99.90
2019-06-10T20:17:16.707Z,99.90
2019-06-10T20:19:46.452Z,99.90
2019-06-10T20:22:27.368Z,99.90
2019-06-10T20:24:56.962Z,99.90
2019-06-10T20:27:26.441Z,99.90
2019-06-10T20:30:07.683Z,99.90
2019-06-10T20:32:40.349Z,99.90
2019-06-10T20:35:23.479Z,99.90
2019-06-10T20:38:04.646Z,99.90
2019-06-10T20:40:35.483Z,99.90
2019-06-10T20:43:04.637Z,99.90
2019-06-10T20:45:34.183Z,99.90
2019-06-10T20:48:03.745Z,99.90
2019-06-10T20:50:33.313Z,99.90
2019-06-10T20:53:13.863Z,99.90
2019-06-10T20:55:49.450Z,99.90
2019-06-10T20:58:13.913Z,99.90
2019-06-10T21:00:49.976Z,99.90
2019-06-10T21:03:17.130Z,99.90
2019-06-10T21:05:50.136Z,99.90
2019-06-10T21:08:19.772Z,99.90
2019-06-10T21:10:54.402Z,99.90
2019-06-10T21:13:22.766Z,99.90
2019-06-10T21:15:55.583Z,99.90
2019-06-10T21:18:24.823Z,99.90
2019-06-10T21:20:56.189Z,99.90
2019-06-10T21:23:31.660Z,99.90
2019-06-10T21:26:02.886Z,99.90
2019-06-10T21:28:33.134Z,99.90
2019-06-10T21:31:03.153Z,99.90
2019-06-10T21:33:33.464Z,99.90
2019-06-10T21:36:04.050Z,99.90
2019-06-10T21:38:33.924Z,99.90
2019-06-10T21:41:03.832Z,99.90
2019-06-10T21:43:33.538Z,99.90
2019-06-10T21:46:04.019Z,99.90
2019-06-10T21:48:33.983Z,99.90
2019-06-10T21:51:03.845Z,99.90
2019-06-10T21:53:33.369Z,99.90
2019-06-10T21:56:02.832Z,99.90
2019-06-10T21:58:32.920Z,99.90
2019-06-10T22:01:12.553Z,99.90
2019-06-10T22:03:35.156Z,99.90
2019-06-10T22:06:04.718Z,99.90
2019-06-10T22:08:34.394Z,99.90
2019-06-10T22:11:03.976Z,99.90
2019-06-10T22:13:33.777Z,99.90
2019-06-10T22:16:04.020Z,99.90
2019-06-10T22:18:33.905Z,99.40
2019-06-10T22:21:03.566Z,99.90
2019-06-10T22:23:33.206Z,99.90
2019-06-10T22:26:03.117Z,99.90
2019-06-10T22:28:32.992Z,99.90
2019-06-10T22:31:16.021Z,99.90
2019-06-10T22:33:52.071Z,99.90
2019-06-10T22:36:23.191Z,99.90
2019-06-10T22:38:55.769Z,98.80
2019-06-10T22:41:24.248Z,98.50
2019-06-10T22:43:55.877Z,99.90
2019-06-10T22:46:25.049Z,98.60
2019-06-10T22:48:55.225Z,96.70
2019-06-10T22:51:24.874Z,99.90
2019-06-10T22:53:56.622Z,97.40
2019-06-10T22:56:26.309Z,99.90
2019-06-10T22:58:57.353Z,96.10
2019-06-10T23:01:34.240Z,93.00
2019-06-10T23:04:01.023Z,95.40
2019-06-10T23:06:33.745Z,98.50
2019-06-10T23:09:02.709Z,99.90
2019-06-10T23:11:32.885Z,99.10
2019-06-10T23:14:03.357Z,99.30
2019-06-10T23:16:33.412Z,98.50
2019-06-10T23:19:03.041Z,95.60
2019-06-10T23:21:32.669Z,99.20
2019-06-10T23:24:03.191Z,99.90
2019-06-10T23:26:33.272Z,97.40
2019-06-10T23:29:03.526Z,96.30
2019-06-10T23:31:48.616Z,97.10
2019-06-10T23:34:05.790Z,99.00
2019-06-10T23:36:35.740Z,99.90
2019-06-10T23:39:06.236Z,99.90
2019-06-10T23:41:35.760Z,93.20
2019-06-10T23:44:12.177Z,98.40
2019-06-10T23:46:48.997Z,99.90
2019-06-10T23:49:18.728Z,99.90
2019-06-10T23:51:48.112Z,96.70
2019-06-10T23:54:17.551Z,93.70
2019-06-10T23:56:47.202Z,99.30
2019-06-10T23:59:17.675Z,99.90
